METAR Data
IDs: Format: Raw Decoded Include TAF

Data at: 2230 UTC 25 Oct 2021

PAPG 252156Z 06003KT 10SM SCT040 OVC065 06/04 A2910 RMK AO2 SLP858 T00610039
PAPG 252056Z 09003KT 10SM OVC065 06/04 A2909 RMK AO2 SLP855 T00610039 58001
PAPG 251956Z 06004KT 10SM FEW040 OVC070 06/04 A2909 RMK AO2 SLP856 T00610039
PAPG 251856Z 00000KT 10SM SCT060 BKN070 06/04 A2910 RMK AO2 SLP856 T00610039
PAPG 251756Z 00000KT 10SM SCT032 BKN070 06/03 A2910 RMK AO2 SLP856 T00610033 10061 20028 53001
PAPG 251656Z 00000KT 10SM BKN070 04/03 A2909 RMK AO2 SLP852 T00440033
PAPG 251556Z 13003KT 10SM OVC070 04/03 A2909 RMK AO2 SLP854 T00390028
PAPG 251456Z 00000KT 10SM OVC075 04/03 A2909 RMK AO2 SLP855 T00390028 56005
PAPG 251356Z AUTO 12003KT 10SM OVC075 04/03 A2910 RMK AO2 SLP857 T00390028
PAPG 251256Z AUTO 14003KT 10SM OVC075 03/02 A2910 RMK AO2 SLP857 T00330022
PAPG 251156Z AUTO 00000KT 10SM OVC080 03/02 A2911 RMK AO2 SLP860 T00280017 10044 20006 58008
PAPG 251056Z AUTO 27003KT 10SM OVC085 02/02 A2912 RMK AO2 SLP865 T00220017 FZRANO
PAPG 250956Z AUTO 10003KT 10SM OVC090 02/02 A2914 RMK AO2 SLP869 T00220017 FZRANO
PAPG 250856Z AUTO 00000KT 10SM OVC090 01/01 A2913 RMK AO2 SLP869 T00110006 400830006 58009 FZRANO
PAPG 250756Z AUTO 28003KT 10SM CLR 01/01 A2914 RMK AO2 SLP871 T00110006 FZRANO
PAPG 250656Z AUTO 25005KT 10SM CLR 01/00 A2915 RMK AO2 SLP876 T00060000 FZRANO
PAPG 250556Z 00000KT 10SM CLR 02/01 A2916 RMK AO2 SLP877 T00220011 10083 20017 51007
PAPG 250456Z 00000KT 10SM CLR 03/02 A2916 RMK AO2 SLP878 T00330017
PAPG 250356Z 24008KT 10SM CLR 04/02 A2915 RMK AO2 SLP874 T00390017
PAPG 250256Z 25005KT 10SM CLR 04/02 A2914 RMK AO2 SLP871 T00440022 56004
PAPG 250156Z 19004KT 10SM CLR 04/02 A2914 RMK AO2 SLP872 T00390017
PAPG 250056Z 20003KT 10SM FEW120 04/02 A2914 RMK AO2 SLP872 T00440022
PAPG 242356Z 15003KT 10SM FEW120 08/03 A2915 RMK AO2 SLP874 T00830028 10083 20033 56026
PAPG 242256Z 00000KT 10SM FEW120 08/03 A2917 RMK AO2 SLP881 HIR THN SCT T00780028
PAPG 242056Z AUTO 07004KT 10SM CLR 07/03 A2923 RMK AO2 SLP900 T00720033 56033
PAPG 241956Z AUTO 00000KT 10SM CLR 07/03 A2926 RMK AO2 SLP911 T00670028
PAPG 241856Z AUTO 00000KT 10SM CLR 07/03 A2929 RMK AO2 SLP922 T00670033
PAPG 241756Z AUTO 00000KT 10SM CLR 03/03 A2932 RMK AO2 SLP933 T00330028 10044 20011 58026
PAPG 241656Z AUTO 22004KT 10SM CLR 02/01 A2935 RMK AO2 SLP943 T00170011 FZRANO
PAPG 241556Z AUTO 15005KT 10SM CLR 03/02 A2938 RMK AO2 SLP952 T00280022
PAPG 241456Z AUTO 00000KT 10SM CLR 03/02 A2940 RMK AO2 SLP959 T00280022 58016
PAPG 241356Z AUTO 00000KT 10SM CLR 04/03 A2942 RMK AO2 SLP966 T00440028
PAPG 241256Z AUTO 00000KT 10SM CLR 03/03 A2944 RMK AO2 SLP971 T00330028
PAPG 241156Z AUTO 00000KT 10SM CLR 03/02 A2945 RMK AO2 SLP976 60000 70015 T00330022 10078 20033 58009
PAPG 241056Z AUTO 00000KT 10SM FEW055 OVC095 05/03 A2947 RMK AO2 SLP983 T00500033